createdAt,value
2023-02-15T09:44:53.326Z,141001.56
2023-02-15T09:50:01.220Z,140970.75
2023-02-15T09:55:11.685Z,141011.38
2023-02-15T10:00:26.526Z,140991.69
2023-02-15T10:05:40.969Z,141012.63
2023-02-15T10:10:49.590Z,141108.59
2023-02-15T10:16:01.119Z,141151.66
2023-02-15T10:21:11.519Z,141154.09
2023-02-15T10:26:18.914Z,141165.16
2023-02-15T10:31:29.350Z,141173.81
2023-02-15T10:36:41.518Z,141178.75
2023-02-15T10:41:50.731Z,141200.91
2023-02-15T10:47:12.719Z,141184.88
2023-02-15T10:52:24.654Z,141171.38
2023-02-15T10:57:34.876Z,141211.97
2023-02-15T11:02:48.381Z,141258.78
2023-02-15T11:07:55.559Z,141306.78
2023-02-15T11:13:00.889Z,141348.72
2023-02-15T11:18:12.294Z,141347.47
2023-02-15T11:23:19.411Z,141399.25
2023-02-15T11:28:27.912Z,141428.81
2023-02-15T11:33:37.520Z,141476.84
2023-02-15T11:38:44.633Z,141499.06
2023-02-15T11:43:50.886Z,141538.50
2023-02-15T11:48:56.700Z,141556.94
2023-02-15T11:54:00.750Z,141654.41
2023-02-15T11:59:11.061Z,141695.09
2023-02-15T12:09:51.746Z,141860.47
2023-02-15T12:14:56.738Z,141883.94
2023-02-15T12:20:03.497Z,141897.50
2023-02-15T12:25:25.708Z,141882.72
2023-02-15T12:30:33.133Z,141943.22
2023-02-15T12:35:39.491Z,141977.75
2023-02-15T12:40:43.962Z,142042.00
2023-02-15T12:45:47.757Z,142082.75
2023-02-15T12:50:56.354Z,142092.63
2023-02-15T12:56:01.165Z,142101.31
2023-02-15T13:01:10.719Z,142129.72
2023-02-15T13:06:16.241Z,142160.63
2023-02-15T13:11:24.068Z,142205.09
2023-02-15T13:16:32.659Z,142240.97
2023-02-15T13:27:48.991Z,142290.41
2023-02-15T13:32:55.935Z,142270.66
2023-02-15T13:38:09.450Z,142323.81
2023-02-15T13:43:30.305Z,142326.28
2023-02-15T13:48:50.585Z,142354.75
2023-02-15T13:54:08.362Z,142373.25
2023-02-15T13:59:23.208Z,142407.94
2023-02-15T14:04:39.662Z,142334.94
2023-02-15T14:09:49.767Z,142349.81
2023-02-15T14:15:04.054Z,142306.50
2023-02-15T14:20:14.020Z,142321.34
2023-02-15T14:25:21.165Z,142380.72
2023-02-15T14:30:28.292Z,142411.63
2023-02-15T14:35:33.363Z,142406.69
2023-02-15T14:41:00.520Z,142416.59
2023-02-15T14:46:11.304Z,142394.31
2023-02-15T14:51:36.755Z,142390.59
2023-02-15T14:56:40.783Z,142380.72
2023-02-15T15:01:56.984Z,142341.13
2023-02-15T15:07:03.827Z,142323.81
2023-02-15T15:12:38.172Z,142268.19
2023-02-15T15:17:57.804Z,142244.69
2023-02-15T15:23:20.106Z,142208.84
2023-02-15T15:28:38.848Z,142202.63
2023-02-15T15:34:01.737Z,142185.34
2023-02-15T15:39:17.586Z,142154.44
2023-02-15T15:44:39.300Z,142127.25
2023-02-15T15:49:43.285Z,142093.84
2023-02-15T15:54:50.133Z,142058.03
2023-02-15T15:59:54.632Z,142033.31
2023-02-15T16:05:08.400Z,142004.91
2023-02-15T16:10:23.556Z,141971.56
2023-02-15T16:15:37.899Z,141930.88
2023-02-15T16:20:41.831Z,141890.13
2023-02-15T16:31:25.425Z,141816.06
2023-02-15T16:36:29.815Z,141781.47
2023-02-15T16:41:33.983Z,141759.31
2023-02-15T16:46:42.360Z,141727.19
2023-02-15T16:51:46.649Z,141722.25
2023-02-15T16:56:52.452Z,141688.94
2023-02-15T17:01:57.380Z,141648.25
2023-02-15T17:07:02.360Z,141576.69
2023-02-15T17:12:06.139Z,141518.75
2023-02-15T17:17:14.043Z,141476.84
2023-02-15T17:22:21.522Z,141455.94
2023-02-15T17:27:27.098Z,141446.03
2023-02-15T17:32:34.136Z,141258.78
2023-02-15T17:37:45.980Z,141412.78
2023-02-15T17:42:49.981Z,141327.75
2023-02-15T17:47:55.168Z,141215.66
2023-02-15T17:53:01.462Z,141143.03
2023-02-15T17:58:07.614Z,141116.00
2023-02-15T18:03:32.261Z,141103.66
2023-02-15T18:08:55.646Z,141114.78
2023-02-15T18:14:01.424Z,141122.09
2023-02-15T18:19:07.018Z,141112.28
2023-02-15T18:24:15.634Z,141123.34
2023-02-15T18:29:21.767Z,141077.81
2023-02-15T18:34:31.615Z,141015.06
2023-02-15T18:39:38.809Z,140936.31
2023-02-15T18:44:45.085Z,140976.94
2023-02-15T18:49:50.048Z,140956.03
2023-02-15T18:54:55.222Z,140937.53
2023-02-15T18:59:59.124Z,140930.19
2023-02-15T19:05:08.583Z,140911.72
2023-02-15T19:10:16.944Z,140879.75
2023-02-15T19:15:22.443Z,140845.31
2023-02-15T19:20:29.115Z,140808.44
2023-02-15T19:25:36.241Z,140755.63
2023-02-15T19:30:39.970Z,140724.91
2023-02-15T19:35:46.978Z,140708.91
2023-02-15T19:40:51.066Z,140688.00
2023-02-15T19:45:55.057Z,140701.53
2023-02-15T19:51:04.549Z,140700.31
2023-02-15T19:56:13.330Z,140704.00
2023-02-15T20:01:18.265Z,140710.13
2023-02-15T20:06:23.301Z,140692.91
2023-02-15T20:11:29.749Z,140679.41
2023-02-15T20:16:33.345Z,140659.75
2023-02-15T20:21:38.750Z,140635.16
2023-02-15T20:26:42.668Z,140614.31
2023-02-15T20:31:46.559Z,140599.53
2023-02-15T20:36:52.617Z,140593.41
2023-02-15T20:41:56.087Z,140582.38
2023-02-15T20:47:04.436Z,140557.81
2023-02-15T20:52:17.696Z,140533.22
2023-02-15T20:57:23.543Z,140495.13
2023-02-15T21:02:29.151Z,140481.66
2023-02-15T21:07:33.915Z,140446.09
2023-02-15T21:12:37.748Z,140422.78
2023-02-15T21:17:41.177Z,140421.53
2023-02-15T21:22:46.219Z,140416.66
2023-02-15T21:27:50.019Z,140430.13
2023-02-15T21:32:53.600Z,140437.47
2023-02-15T21:37:58.528Z,140441.16
2023-02-15T21:43:21.821Z,140442.44
2023-02-15T21:48:28.578Z,140424.00
2023-02-15T21:53:34.622Z,140390.88
2023-02-15T21:58:38.468Z,140356.47
2023-02-15T22:03:42.402Z,140324.56
2023-02-15T22:08:49.024Z,140285.31
2023-02-15T22:13:52.624Z,140286.53
2023-02-15T22:18:56.113Z,140282.88
2023-02-15T22:24:01.040Z,140287.78
2023-02-15T22:29:04.700Z,140295.13
2023-02-15T22:34:08.509Z,140300.03
2023-02-15T22:39:13.680Z,140291.44
2023-02-15T22:44:20.979Z,140244.81
